createdAt,value
2019-01-31T00:01:46.506Z,33.15
2019-01-31T00:04:39.875Z,28.52
2019-01-31T00:07:33.239Z,28.25
2019-01-31T00:10:45.100Z,32.03
2019-01-31T00:13:54.133Z,29.70
2019-01-31T00:16:57.269Z,31.15
2019-01-31T00:19:38.414Z,30.48
2019-01-31T00:22:37.912Z,29.70
2019-01-31T00:25:25.243Z,29.75
2019-01-31T00:28:22.628Z,31.45
2019-01-31T00:31:22.657Z,29.57
2019-01-31T00:34:13.166Z,28.20
2019-01-31T00:37:14.161Z,30.40
2019-01-31T00:39:58.138Z,29.80
2019-01-31T00:43:14.471Z,30.70
2019-01-31T00:46:05.714Z,32.65
2019-01-31T00:49:07.602Z,34.80
2019-01-31T00:52:02.466Z,28.65
2019-01-31T00:54:51.603Z,30.65
2019-01-31T00:57:31.228Z,34.63
2019-01-31T01:00:10.827Z,26.80
2019-01-31T01:03:12.483Z,28.77
2019-01-31T01:06:09.052Z,26.00
2019-01-31T01:09:17.835Z,27.27
2019-01-31T01:12:40.172Z,34.63
2019-01-31T01:15:23.329Z,31.75
2019-01-31T01:18:07.388Z,33.28
2019-01-31T01:20:45.087Z,39.00
2019-01-31T01:23:24.379Z,31.50
2019-01-31T01:26:12.124Z,32.42
2019-01-31T01:29:16.231Z,29.12
2019-01-31T01:32:28.640Z,32.25
2019-01-31T01:35:32.311Z,30.62
2019-01-31T01:38:37.372Z,32.23
2019-01-31T01:41:33.587Z,32.33
2019-01-31T01:44:59.115Z,28.15
2019-01-31T01:47:49.189Z,29.52
2019-01-31T01:50:30.846Z,30.88
2019-01-31T01:53:25.804Z,32.33
2019-01-31T01:56:22.124Z,28.95
2019-01-31T01:59:04.304Z,29.70
2019-01-31T02:01:40.227Z,34.00
2019-01-31T02:04:21.137Z,27.85
2019-01-31T02:06:59.103Z,27.62
2019-01-31T02:09:49.827Z,28.40
2019-01-31T02:12:58.650Z,30.95
2019-01-31T02:15:48.886Z,31.73
2019-01-31T02:18:26.589Z,31.82
2019-01-31T02:21:37.073Z,31.50
2019-01-31T02:24:23.044Z,33.30
2019-01-31T02:27:20.439Z,31.17
2019-01-31T02:30:02.608Z,32.80
2019-01-31T02:32:59.383Z,34.80
2019-01-31T02:35:41.910Z,30.05
2019-01-31T02:38:51.784Z,29.77
2019-01-31T02:41:52.459Z,28.77
2019-01-31T02:44:53.838Z,35.43
2019-01-31T02:47:57.150Z,33.45
2019-01-31T02:51:22.366Z,33.45
2019-01-31T02:54:02.121Z,33.75
2019-01-31T02:57:04.051Z,29.05
2019-01-31T03:00:32.361Z,31.07
2019-01-31T03:03:28.251Z,37.23
2019-01-31T03:06:33.118Z,30.43
2019-01-31T03:09:28.106Z,33.50
2019-01-31T03:12:16.157Z,32.35
2019-01-31T03:14:51.056Z,33.48
2019-01-31T03:18:01.501Z,33.13
2019-01-31T03:21:17.148Z,28.73
2019-01-31T03:24:21.018Z,30.95
2019-01-31T03:27:36.321Z,31.95
2019-01-31T03:30:44.886Z,36.68
2019-01-31T03:33:45.663Z,34.05
2019-01-31T03:37:05.211Z,29.20
2019-01-31T03:39:45.813Z,37.28
2019-01-31T03:42:55.999Z,31.80
2019-01-31T03:45:32.732Z,30.82
2019-01-31T03:48:22.006Z,32.90
2019-01-31T03:51:15.036Z,32.35
2019-01-31T03:54:05.062Z,33.95
2019-01-31T03:57:16.509Z,32.78
2019-01-31T03:59:58.203Z,37.08
2019-01-31T04:03:00.618Z,33.00
2019-01-31T04:05:37.261Z,33.80
2019-01-31T04:08:06.628Z,33.23
2019-01-31T04:10:36.191Z,36.48
2019-01-31T04:13:05.569Z,31.97
2019-01-31T04:15:35.023Z,33.80
2019-01-31T04:18:04.525Z,35.25
2019-01-31T04:20:33.673Z,36.17
2019-01-31T04:23:02.980Z,35.65
2019-01-31T04:25:33.573Z,36.03
2019-01-31T04:28:02.763Z,37.48
2019-01-31T04:30:32.446Z,34.88
2019-01-31T04:33:01.632Z,35.10
2019-01-31T04:35:31.253Z,33.60
2019-01-31T04:38:00.435Z,34.27
2019-01-31T04:40:31.561Z,36.55
2019-01-31T04:43:01.303Z,42.55
2019-01-31T04:45:31.187Z,36.53
2019-01-31T04:48:01.979Z,39.85
2019-01-31T04:50:31.241Z,32.98
2019-01-31T04:53:00.409Z,37.03
2019-01-31T04:55:29.708Z,37.58
2019-01-31T04:57:58.999Z,38.65
2019-01-31T05:00:28.535Z,36.08
2019-01-31T05:02:57.882Z,36.25
2019-01-31T05:05:27.207Z,32.28
2019-01-31T05:07:56.442Z,40.70
2019-01-31T05:10:42.461Z,35.35
2019-01-31T05:13:01.275Z,37.28
2019-01-31T05:15:30.369Z,36.17
2019-01-31T05:18:02.021Z,35.83
2019-01-31T05:20:32.299Z,35.25
2019-01-31T05:23:06.560Z,37.17
2019-01-31T05:25:43.901Z,39.95
2019-01-31T05:28:27.371Z,36.85
2019-01-31T05:31:00.774Z,35.45
2019-01-31T05:33:30.416Z,36.45
2019-01-31T05:36:00.386Z,36.28
2019-01-31T05:38:30.937Z,40.92
2019-01-31T05:41:00.387Z,37.90
2019-01-31T05:43:29.992Z,34.13
2019-01-31T05:45:59.470Z,39.10
2019-01-31T05:48:29.026Z,36.60
2019-01-31T05:50:58.520Z,36.15
2019-01-31T05:53:30.408Z,36.38
2019-01-31T05:55:59.794Z,36.75
2019-01-31T05:58:33.120Z,35.05
2019-01-31T06:01:04.750Z,43.17
2019-01-31T06:03:34.422Z,35.35
2019-01-31T06:06:04.448Z,36.60
2019-01-31T06:08:33.744Z,38.88
2019-01-31T06:11:07.723Z,43.15
2019-01-31T06:13:33.865Z,42.95
2019-01-31T06:16:03.227Z,40.67
2019-01-31T06:18:38.983Z,36.83
2019-01-31T06:21:10.625Z,46.23
2019-01-31T06:23:40.146Z,43.78
2019-01-31T06:26:11.172Z,326.80
2019-01-31T06:28:41.382Z,114.75
2019-01-31T06:31:13.294Z,76.50
2019-01-31T06:33:42.718Z,50.28
2019-01-31T06:36:11.938Z,51.42
2019-01-31T06:38:56.863Z,42.13
2019-01-31T06:41:34.819Z,42.10
2019-01-31T06:44:05.273Z,43.52
2019-01-31T06:46:39.032Z,44.63
2019-01-31T06:49:06.625Z,39.42
2019-01-31T06:51:36.219Z,39.90
2019-01-31T06:54:12.028Z,39.88
2019-01-31T06:56:49.056Z,40.92
2019-01-31T06:59:20.297Z,44.38
2019-01-31T07:01:53.302Z,49.83
2019-01-31T07:04:28.934Z,45.75
2019-01-31T07:07:02.042Z,51.98
2019-01-31T07:09:35.538Z,43.87
2019-01-31T07:12:09.662Z,39.00
2019-01-31T07:14:45.243Z,43.23
2019-01-31T07:17:19.033Z,45.12
2019-01-31T07:19:49.664Z,44.55
2019-01-31T07:22:21.777Z,48.17
2019-01-31T07:24:55.500Z,46.20
2019-01-31T07:27:30.540Z,45.88
2019-01-31T07:30:03.286Z,39.27
2019-01-31T07:32:34.709Z,37.50
2019-01-31T07:35:05.533Z,39.65
2019-01-31T07:37:39.188Z,40.25
2019-01-31T07:40:11.009Z,43.60
2019-01-31T07:42:43.855Z,41.65
2019-01-31T07:45:24.709Z,42.27
2019-01-31T07:47:59.039Z,40.43
2019-01-31T07:50:30.050Z,41.53
2019-01-31T07:53:02.818Z,40.63
2019-01-31T07:55:35.330Z,36.28
2019-01-31T07:58:10.403Z,36.30
2019-01-31T08:00:41.193Z,40.12
2019-01-31T08:03:13.788Z,44.35
2019-01-31T08:05:45.227Z,38.48
2019-01-31T08:08:14.317Z,40.12
2019-01-31T08:10:45.795Z,38.13
2019-01-31T08:13:17.186Z,36.38
2019-01-31T08:15:46.001Z,43.48
2019-01-31T08:18:14.755Z,38.53
2019-01-31T08:20:43.539Z,38.83
2019-01-31T08:23:12.603Z,36.77
2019-01-31T08:25:41.400Z,40.12
2019-01-31T08:28:10.340Z,37.55
2019-01-31T08:30:41.204Z,35.25
2019-01-31T08:33:10.093Z,33.23
2019-01-31T08:35:39.333Z,33.60
2019-01-31T08:38:08.079Z,36.05
2019-01-31T08:40:36.868Z,33.55
2019-01-31T08:43:05.755Z,30.48
2019-01-31T08:45:34.678Z,34.63
2019-01-31T08:48:03.567Z,33.28
2019-01-31T08:50:32.802Z,27.82
2019-01-31T08:53:01.660Z,29.35
2019-01-31T08:55:30.412Z,28.10
2019-01-31T08:57:59.492Z,27.60
2019-01-31T09:00:29.795Z,28.12
2019-01-31T09:02:58.757Z,25.97
2019-01-31T09:05:27.603Z,26.15
2019-01-31T09:07:56.620Z,23.57
2019-01-31T09:10:27.843Z,24.23
2019-01-31T09:12:57.421Z,24.55
2019-01-31T09:15:26.776Z,25.60
2019-01-31T09:17:55.682Z,22.50
2019-01-31T09:20:37.222Z,19.37
2019-01-31T09:23:40.131Z,21.57
2019-01-31T09:26:41.184Z,21.50
2019-01-31T09:29:41.039Z,17.75
2019-01-31T09:33:03.490Z,19.00
2019-01-31T09:35:57.633Z,22.02
2019-01-31T09:39:17.111Z,20.82
2019-01-31T09:42:26.377Z,15.65
2019-01-31T09:45:05.471Z,17.98
2019-01-31T09:47:56.030Z,16.77
2019-01-31T09:50:43.413Z,15.83
2019-01-31T09:53:34.667Z,17.05
2019-01-31T09:56:18.370Z,15.00
2019-01-31T09:58:55.156Z,18.07
2019-01-31T10:02:00.636Z,15.58
2019-01-31T10:05:14.032Z,19.35
2019-01-31T10:08:20.502Z,18.62
2019-01-31T10:11:26.501Z,14.45
2019-01-31T10:14:21.276Z,16.73
2019-01-31T10:17:28.626Z,19.07
2019-01-31T10:20:30.741Z,18.25
2019-01-31T10:23:27.405Z,19.15
2019-01-31T10:26:11.607Z,16.00
2019-01-31T10:29:02.105Z,18.30
2019-01-31T10:31:47.144Z,17.92
2019-01-31T10:34:58.896Z,20.30
2019-01-31T10:38:20.880Z,18.17
2019-01-31T10:41:22.829Z,18.35
2019-01-31T10:44:16.976Z,21.07
2019-01-31T10:47:28.283Z,17.50
2019-01-31T10:50:18.556Z,17.15
2019-01-31T10:53:31.624Z,17.20
2019-01-31T10:56:15.685Z,15.23
2019-01-31T10:59:44.065Z,17.80
2019-01-31T11:02:51.540Z,15.30
2019-01-31T11:05:51.014Z,14.95
2019-01-31T11:08:35.964Z,13.95
2019-01-31T11:11:53.343Z,10.72
2019-01-31T11:14:43.083Z,10.45
2019-01-31T11:17:34.906Z,18.15
2019-01-31T11:20:18.555Z,14.28
2019-01-31T11:23:28.976Z,13.25
2019-01-31T11:26:19.720Z,11.85
2019-01-31T11:29:25.463Z,16.25
2019-01-31T11:32:20.854Z,13.28
2019-01-31T11:35:34.036Z,13.53
2019-01-31T11:38:15.741Z,20.17
2019-01-31T11:41:18.853Z,17.90
2019-01-31T11:44:22.819Z,13.93
2019-01-31T11:47:16.398Z,16.93
2019-01-31T11:50:22.264Z,14.20
2019-01-31T11:53:35.832Z,17.17
2019-01-31T11:56:30.066Z,15.20
2019-01-31T11:59:06.088Z,16.20
2019-01-31T12:01:35.685Z,16.20
2019-01-31T12:04:20.158Z,13.60
2019-01-31T12:06:49.015Z,13.28
2019-01-31T12:09:19.780Z,25.30
2019-01-31T12:11:48.753Z,17.15
2019-01-31T12:14:17.574Z,11.60
2019-01-31T12:16:47.056Z,12.60
2019-01-31T12:19:15.894Z,10.50
2019-01-31T12:21:44.903Z,10.88
2019-01-31T12:24:16.666Z,12.35
2019-01-31T12:26:44.875Z,12.80
2019-01-31T12:29:13.905Z,11.30
2019-01-31T12:31:42.993Z,15.50
2019-01-31T12:34:11.829Z,14.30
2019-01-31T12:36:40.694Z,14.63
2019-01-31T12:39:11.353Z,16.40
2019-01-31T12:41:40.320Z,15.58
2019-01-31T12:44:09.461Z,18.87
2019-01-31T12:46:38.510Z,15.80
2019-01-31T12:49:07.333Z,19.23
2019-01-31T12:51:36.298Z,16.57
2019-01-31T12:54:05.690Z,17.50
2019-01-31T12:56:34.559Z,16.75
2019-01-31T12:59:03.641Z,19.23
2019-01-31T13:01:32.747Z,14.05
2019-01-31T13:04:01.574Z,15.38
2019-01-31T13:06:30.664Z,17.05
2019-01-31T13:08:59.531Z,15.03
2019-01-31T13:11:28.391Z,14.98
2019-01-31T13:13:57.179Z,12.18
2019-01-31T13:16:25.979Z,17.40
2019-01-31T13:18:54.824Z,11.95
2019-01-31T13:21:23.629Z,12.73
2019-01-31T13:23:52.542Z,11.68
2019-01-31T13:26:21.401Z,10.55
2019-01-31T13:28:50.158Z,11.97
2019-01-31T13:31:19.017Z,10.10
2019-01-31T13:33:47.813Z,13.28
2019-01-31T13:36:16.747Z,14.45
2019-01-31T13:38:45.591Z,12.88
2019-01-31T13:41:14.600Z,13.43
2019-01-31T13:43:43.704Z,15.58
2019-01-31T13:46:12.563Z,15.30
2019-01-31T13:48:41.464Z,17.85
2019-01-31T13:51:10.882Z,14.73
2019-01-31T13:53:39.929Z,13.15
2019-01-31T13:56:09.436Z,15.75
2019-01-31T13:58:38.427Z,15.53
2019-01-31T14:01:08.209Z,14.78
2019-01-31T14:03:37.014Z,16.75
2019-01-31T14:06:05.851Z,15.30
2019-01-31T14:08:34.680Z,15.95
2019-01-31T14:11:03.467Z,13.80
2019-01-31T14:13:32.251Z,15.83
2019-01-31T14:16:01.139Z,16.65
2019-01-31T14:18:34.454Z,15.70
2019-01-31T14:21:08.125Z,18.73
2019-01-31T14:23:41.521Z,16.75
2019-01-31T14:26:12.682Z,13.48
2019-01-31T14:28:47.295Z,16.42
2019-01-31T14:31:17.024Z,12.85
2019-01-31T14:33:48.875Z,13.43
2019-01-31T14:36:20.084Z,15.90
2019-01-31T14:38:52.923Z,12.98
2019-01-31T14:41:23.294Z,14.05
2019-01-31T14:43:54.895Z,11.33
2019-01-31T14:46:29.853Z,11.80
2019-01-31T14:49:02.485Z,14.28
2019-01-31T14:51:34.245Z,13.68
2019-01-31T14:54:05.333Z,11.73
2019-01-31T14:56:40.242Z,18.52
2019-01-31T14:59:13.898Z,15.23
2019-01-31T15:01:45.037Z,17.40
2019-01-31T15:04:15.634Z,14.75
2019-01-31T15:06:46.345Z,18.05
2019-01-31T15:09:16.939Z,15.40
2019-01-31T15:11:49.835Z,18.37
2019-01-31T15:14:31.244Z,17.50
2019-01-31T15:16:57.267Z,17.30
2019-01-31T15:19:28.766Z,21.37
2019-01-31T15:21:58.095Z,22.98
2019-01-31T15:24:28.494Z,20.45
2019-01-31T15:26:57.953Z,25.27
2019-01-31T15:29:58.809Z,21.87
2019-01-31T15:32:40.413Z,21.00
2019-01-31T15:35:12.246Z,24.85
2019-01-31T15:38:05.968Z,22.15
2019-01-31T15:40:45.059Z,25.97
2019-01-31T15:43:35.638Z,20.88
2019-01-31T15:46:12.194Z,22.13
2019-01-31T15:48:53.953Z,20.10
2019-01-31T15:51:30.747Z,26.30
2019-01-31T15:54:34.662Z,24.47
2019-01-31T15:57:32.417Z,20.48
2019-01-31T16:00:17.533Z,22.17
2019-01-31T16:03:08.129Z,23.10
2019-01-31T16:05:44.084Z,20.30
2019-01-31T16:08:17.518Z,20.77
2019-01-31T16:11:02.720Z,22.80
2019-01-31T16:13:27.674Z,21.40
2019-01-31T16:16:06.343Z,24.70
2019-01-31T16:18:47.020Z,17.57
2019-01-31T16:21:23.104Z,18.92
2019-01-31T16:23:56.989Z,17.90
2019-01-31T16:26:36.102Z,17.15
2019-01-31T16:32:35.535Z,20.68
2019-01-31T16:35:11.847Z,18.55
2019-01-31T16:37:58.945Z,19.02
2019-01-31T16:41:00.618Z,17.85
2019-01-31T16:43:42.726Z,17.70
2019-01-31T16:46:11.906Z,23.20
2019-01-31T16:48:41.428Z,23.87
2019-01-31T16:51:13.428Z,21.62
2019-01-31T16:53:43.501Z,17.70
2019-01-31T16:56:13.974Z,18.23
2019-01-31T16:58:45.141Z,19.25
2019-01-31T17:01:17.261Z,20.12
2019-01-31T17:03:48.340Z,20.23
2019-01-31T17:06:18.925Z,17.80
2019-01-31T17:08:48.046Z,20.35
2019-01-31T17:11:22.642Z,21.15
2019-01-31T17:13:52.375Z,33.20
2019-01-31T17:16:24.635Z,55.73
2019-01-31T17:18:57.030Z,65.20
2019-01-31T17:21:35.382Z,76.05
2019-01-31T17:24:05.429Z,43.65
2019-01-31T17:27:16.843Z,28.45
2019-01-31T17:29:23.908Z,25.97
2019-01-31T17:31:55.293Z,23.40
2019-01-31T17:34:24.787Z,23.98
2019-01-31T17:36:57.441Z,21.77
2019-01-31T17:39:26.686Z,19.10
2019-01-31T17:42:06.640Z,18.02
2019-01-31T17:44:57.249Z,21.15
2019-01-31T17:47:31.054Z,20.68
2019-01-31T17:50:01.787Z,24.87
2019-01-31T17:52:31.005Z,21.42
2019-01-31T17:55:11.088Z,23.98
2019-01-31T17:57:41.905Z,21.23
2019-01-31T18:00:55.319Z,21.15
2019-01-31T18:03:25.851Z,24.00
2019-01-31T18:06:41.081Z,26.45
2019-01-31T18:09:10.566Z,27.10
2019-01-31T18:11:40.109Z,25.77
2019-01-31T18:14:16.737Z,29.18
2019-01-31T18:16:50.863Z,29.60
2019-01-31T18:19:19.940Z,29.63
2019-01-31T18:21:52.177Z,28.32
2019-01-31T18:24:23.078Z,35.58
2019-01-31T18:26:52.445Z,34.58
2019-01-31T18:29:21.663Z,30.85
2019-01-31T18:31:51.097Z,30.70
2019-01-31T18:34:20.140Z,34.92
2019-01-31T18:36:49.414Z,36.40
2019-01-31T18:39:18.657Z,34.13
2019-01-31T18:41:48.085Z,32.88
2019-01-31T18:44:17.045Z,39.70
2019-01-31T18:46:46.655Z,53.40
2019-01-31T18:49:18.223Z,44.27
2019-01-31T18:51:49.434Z,37.67
2019-01-31T18:54:21.225Z,41.08
2019-01-31T18:56:50.477Z,39.75
2019-01-31T18:59:19.670Z,42.33
2019-01-31T19:01:48.652Z,40.73
2019-01-31T19:04:18.047Z,42.35
2019-01-31T19:06:47.226Z,41.13
2019-01-31T19:09:16.838Z,42.58
2019-01-31T19:11:45.923Z,48.13
2019-01-31T19:14:18.663Z,44.60
2019-01-31T19:16:49.040Z,39.10
2019-01-31T19:19:18.587Z,42.00
2019-01-31T19:21:49.133Z,43.20
2019-01-31T19:24:18.237Z,45.25
2019-01-31T19:26:47.838Z,47.90
2019-01-31T19:29:17.479Z,48.38
2019-01-31T19:31:49.272Z,46.23
2019-01-31T19:34:18.620Z,43.85
2019-01-31T19:36:47.865Z,47.48
2019-01-31T19:39:18.405Z,45.78
2019-01-31T19:41:47.968Z,49.15
2019-01-31T19:44:17.559Z,44.45
2019-01-31T19:46:47.124Z,47.80
2019-01-31T19:49:16.457Z,48.87
2019-01-31T19:51:49.749Z,43.08
2019-01-31T19:54:20.301Z,44.27
2019-01-31T19:56:51.972Z,40.52
2019-01-31T19:59:21.409Z,50.10
2019-01-31T20:01:51.167Z,43.45
2019-01-31T20:04:20.939Z,46.35
2019-01-31T20:06:50.316Z,47.53
2019-01-31T20:09:22.853Z,45.67
2019-01-31T20:11:52.106Z,48.20
2019-01-31T20:14:22.471Z,47.35
2019-01-31T20:16:51.805Z,41.95
2019-01-31T20:19:21.193Z,44.60
2019-01-31T20:21:52.044Z,44.53
2019-01-31T20:24:21.654Z,46.90
2019-01-31T20:26:51.515Z,49.48
2019-01-31T20:29:20.609Z,51.13
2019-01-31T20:31:50.101Z,44.45
2019-01-31T20:34:19.123Z,43.92
2019-01-31T20:36:48.570Z,44.65
2019-01-31T20:39:18.054Z,47.88
2019-01-31T20:41:54.219Z,45.38
2019-01-31T20:44:18.871Z,49.95
2019-01-31T20:46:48.082Z,48.10
2019-01-31T20:49:18.071Z,50.20
2019-01-31T20:51:47.565Z,49.85
2019-01-31T20:54:16.733Z,47.23
2019-01-31T20:56:46.231Z,48.17
2019-01-31T20:59:15.296Z,48.13
2019-01-31T21:01:44.608Z,46.83
2019-01-31T21:04:13.785Z,53.68
2019-01-31T21:06:42.944Z,49.03
2019-01-31T21:09:12.580Z,48.48
2019-01-31T21:11:41.885Z,44.77
2019-01-31T21:14:11.157Z,42.85
2019-01-31T21:16:51.057Z,39.92
2019-01-31T21:19:11.316Z,48.25
2019-01-31T21:21:40.554Z,46.30
2019-01-31T21:24:09.596Z,50.35
2019-01-31T21:26:38.874Z,44.23
2019-01-31T21:29:08.199Z,38.48
2019-01-31T21:31:37.167Z,45.25
2019-01-31T21:34:06.739Z,43.98
2019-01-31T21:36:35.871Z,46.42
2019-01-31T21:39:12.340Z,44.48
2019-01-31T21:41:41.554Z,45.83
2019-01-31T21:44:10.986Z,48.70
2019-01-31T21:46:40.579Z,44.45
2019-01-31T21:49:09.531Z,42.75
2019-01-31T21:51:39.213Z,46.13
2019-01-31T21:54:08.248Z,50.35
2019-01-31T21:56:37.355Z,48.60
2019-01-31T21:59:08.848Z,45.33
2019-01-31T22:01:36.971Z,47.10
2019-01-31T22:04:05.967Z,40.35
2019-01-31T22:06:34.957Z,39.58
2019-01-31T22:09:07.271Z,47.75
2019-01-31T22:11:36.489Z,44.00
2019-01-31T22:14:06.272Z,44.08
2019-01-31T22:16:35.251Z,46.65
2019-01-31T22:19:04.639Z,50.28
2019-01-31T22:21:33.955Z,50.55
2019-01-31T22:24:02.941Z,41.48
2019-01-31T22:26:34.951Z,48.13
2019-01-31T22:29:04.273Z,44.60
2019-01-31T22:31:33.349Z,45.38
2019-01-31T22:34:02.306Z,43.55
2019-01-31T22:36:32.043Z,41.88
2019-01-31T22:39:03.484Z,39.13
2019-01-31T22:41:32.544Z,42.85
2019-01-31T22:44:01.689Z,41.25
2019-01-31T22:46:32.165Z,41.70
2019-01-31T22:49:01.183Z,44.98
2019-01-31T22:51:30.201Z,41.23
2019-01-31T22:53:58.994Z,41.83
2019-01-31T22:56:27.857Z,46.13
2019-01-31T22:58:56.771Z,42.62
2019-01-31T23:01:49.922Z,40.92
2019-01-31T23:04:18.738Z,42.38
2019-01-31T23:06:47.558Z,43.35
2019-01-31T23:09:16.661Z,40.23
2019-01-31T23:11:45.511Z,42.15
2019-01-31T23:14:14.468Z,39.88
2019-01-31T23:16:43.284Z,38.60
2019-01-31T23:19:12.226Z,37.48
2019-01-31T23:21:41.315Z,39.65
2019-01-31T23:24:10.394Z,46.28
2019-01-31T23:26:39.171Z,37.63
2019-01-31T23:29:08.046Z,43.58
2019-01-31T23:31:36.967Z,39.98
2019-01-31T23:34:06.177Z,36.10
2019-01-31T23:36:35.012Z,40.03
2019-01-31T23:39:05.688Z,41.35
2019-01-31T23:41:34.450Z,41.18
2019-01-31T23:44:03.202Z,36.73
2019-01-31T23:46:31.962Z,35.30
2019-01-31T23:49:00.723Z,39.83
2019-01-31T23:51:29.991Z,39.03
2019-01-31T23:53:58.734Z,36.77
2019-01-31T23:56:27.571Z,38.15
2019-01-31T23:58:56.600Z,37.85
